sensor_id;sensor_type;location;lat;lon;timestamp;temperature;humidity
8172;DHT22;4127;47.908;10.850;2023-02-15T00:01:26;-1.10;99.90
8172;DHT22;4127;47.908;10.850;2023-02-15T00:03:53;-1.10;99.90
8172;DHT22;4127;47.908;10.850;2023-02-15T00:06:25;-1.10;99.90
8172;DHT22;4127;47.908;10.850;2023-02-15T00:09:15;-1.10;99.90
8172;DHT22;4127;47.908;10.850;2023-02-15T00:11:47;-1.10;99.90
8172;DHT22;4127;47.908;10.850;2023-02-15T00:14:43;-1.10;99.90
8172;DHT22;4127;47.908;10.850;2023-02-15T00:17:18;-1.10;99.90
8172;DHT22;4127;47.908;10.850;2023-02-15T00:19:46;-1.10;99.90
8172;DHT22;4127;47.908;10.850;2023-02-15T00:22:16;-1.20;99.90
8172;DHT22;4127;47.908;10.850;2023-02-15T00:24:43;-1.20;99.90
8172;DHT22;4127;47.908;10.850;2023-02-15T00:30:39;-1.20;99.90
8172;DHT22;4127;47.908;10.850;2023-02-15T00:38:05;-1.30;99.90
8172;DHT22;4127;47.908;10.850;2023-02-15T00:40:59;-1.30;99.90
8172;DHT22;4127;47.908;10.850;2023-02-15T00:44:01;-1.30;99.90
8172;DHT22;4127;47.908;10.850;2023-02-15T00:51:21;-1.30;99.90
8172;DHT22;4127;47.908;10.850;2023-02-15T00:58:50;-1.30;99.90
8172;DHT22;4127;47.908;10.850;2023-02-15T01:01:44;-1.30;99.90
8172;DHT22;4127;47.908;10.850;2023-02-15T01:05:11;-1.30;99.90
8172;DHT22;4127;47.908;10.850;2023-02-15T01:08:39;-1.40;99.90
8172;DHT22;4127;47.908;10.850;2023-02-15T01:14:22;-1.40;99.90
8172;DHT22;4127;47.908;10.850;2023-02-15T01:17:07;-1.50;99.90
8172;DHT22;4127;47.908;10.850;2023-02-15T01:24:21;-1.50;99.90
8172;DHT22;4127;47.908;10.850;2023-02-15T01:26:59;-1.50;99.90
8172;DHT22;4127;47.908;10.850;2023-02-15T01:32:59;-1.50;99.90
8172;DHT22;4127;47.908;10.850;2023-02-15T01:36:06;-1.50;99.90
8172;DHT22;4127;47.908;10.850;2023-02-15T01:38:45;-1.50;99.90
8172;DHT22;4127;47.908;10.850;2023-02-15T01:41:37;-1.60;99.90
8172;DHT22;4127;47.908;10.850;2023-02-15T01:52:26;-1.70;99.90
8172;DHT22;4127;47.908;10.850;2023-02-15T01:55:21;-1.70;99.90
8172;DHT22;4127;47.908;10.850;2023-02-15T01:58:03;-1.70;99.90
8172;DHT22;4127;47.908;10.850;2023-02-15T02:01:25;-1.70;99.90
8172;DHT22;4127;47.908;10.850;2023-02-15T02:04:49;-1.70;99.90
8172;DHT22;4127;47.908;10.850;2023-02-15T02:07:50;-1.70;99.90
8172;DHT22;4127;47.908;10.850;2023-02-15T02:10:36;-1.80;99.90
8172;DHT22;4127;47.908;10.850;2023-02-15T02:13:21;-1.80;99.90
8172;DHT22;4127;47.908;10.850;2023-02-15T02:23:35;-1.90;99.90
8172;DHT22;4127;47.908;10.850;2023-02-15T02:29:55;-1.90;99.90
8172;DHT22;4127;47.908;10.850;2023-02-15T02:33:17;-1.90;99.90
8172;DHT22;4127;47.908;10.850;2023-02-15T02:43:00;-1.70;99.90
8172;DHT22;4127;47.908;10.850;2023-02-15T02:46:06;-1.70;99.90
8172;DHT22;4127;47.908;10.850;2023-02-15T02:49:17;-1.70;99.90
8172;DHT22;4127;47.908;10.850;2023-02-15T02:53:15;-1.70;99.90
8172;DHT22;4127;47.908;10.850;2023-02-15T02:59:51;-1.70;99.90
8172;DHT22;4127;47.908;10.850;2023-02-15T03:03:02;-1.70;99.90
8172;DHT22;4127;47.908;10.850;2023-02-15T03:06:03;-1.70;99.90
8172;DHT22;4127;47.908;10.850;2023-02-15T03:13:05;-1.70;99.90
8172;DHT22;4127;47.908;10.850;2023-02-15T03:19:34;-1.70;99.90
8172;DHT22;4127;47.908;10.850;2023-02-15T03:23:14;-1.80;99.90
8172;DHT22;4127;47.908;10.850;2023-02-15T03:26:01;-1.80;99.90
8172;DHT22;4127;47.908;10.850;2023-02-15T03:28:49;-1.80;99.90
8172;DHT22;4127;47.908;10.850;2023-02-15T03:31:43;-1.60;99.90
8172;DHT22;4127;47.908;10.850;2023-02-15T03:34:23;-1.60;99.90
8172;DHT22;4127;47.908;10.850;2023-02-15T03:37:29;-1.50;99.90
8172;DHT22;4127;47.908;10.850;2023-02-15T03:40:59;-1.50;99.90
8172;DHT22;4127;47.908;10.850;2023-02-15T03:44:11;-1.40;99.90
8172;DHT22;4127;47.908;10.850;2023-02-15T03:47:19;-1.40;99.90
8172;DHT22;4127;47.908;10.850;2023-02-15T03:50:25;-1.60;99.90
8172;DHT22;4127;47.908;10.850;2023-02-15T03:53:44;-1.80;99.90
8172;DHT22;4127;47.908;10.850;2023-02-15T04:04:23;-2.10;99.90
8172;DHT22;4127;47.908;10.850;2023-02-15T04:07:19;-2.20;99.90
8172;DHT22;4127;47.908;10.850;2023-02-15T04:20:32;-2.20;99.90
8172;DHT22;4127;47.908;10.850;2023-02-15T04:23:43;-2.10;99.90
8172;DHT22;4127;47.908;10.850;2023-02-15T04:26:48;-2.10;99.90
8172;DHT22;4127;47.908;10.850;2023-02-15T04:29:30;-2.10;99.90
8172;DHT22;4127;47.908;10.850;2023-02-15T04:32:43;-2.10;99.90
8172;DHT22;4127;47.908;10.850;2023-02-15T04:39:57;-2.10;99.90
8172;DHT22;4127;47.908;10.850;2023-02-15T04:46:40;-2.00;99.90
8172;DHT22;4127;47.908;10.850;2023-02-15T04:49:08;-2.00;99.90
8172;DHT22;4127;47.908;10.850;2023-02-15T04:52:02;-2.00;99.90
8172;DHT22;4127;47.908;10.850;2023-02-15T04:54:48;-2.10;99.90
8172;DHT22;4127;47.908;10.850;2023-02-15T05:00:19;-2.10;99.90
8172;DHT22;4127;47.908;10.850;2023-02-15T05:02:51;-2.10;99.90
8172;DHT22;4127;47.908;10.850;2023-02-15T05:05:18;-2.10;99.90
8172;DHT22;4127;47.908;10.850;2023-02-15T05:07:45;-2.20;99.90
8172;DHT22;4127;47.908;10.850;2023-02-15T05:10:35;-2.20;99.90
8172;DHT22;4127;47.908;10.850;2023-02-15T05:13:10;-2.20;99.90
8172;DHT22;4127;47.908;10.850;2023-02-15T05:16:03;-2.30;99.90
8172;DHT22;4127;47.908;10.850;2023-02-15T05:18:45;-2.30;99.90
8172;DHT22;4127;47.908;10.850;2023-02-15T05:21:11;-2.40;99.90
8172;DHT22;4127;47.908;10.850;2023-02-15T05:23:41;-2.40;99.90
8172;DHT22;4127;47.908;10.850;2023-02-15T05:26:24;-2.30;99.90
8172;DHT22;4127;47.908;10.850;2023-02-15T05:29:19;-2.20;99.90
8172;DHT22;4127;47.908;10.850;2023-02-15T05:31:48;-2.10;99.90
8172;DHT22;4127;47.908;10.850;2023-02-15T05:34:18;-2.10;99.90
8172;DHT22;4127;47.908;10.850;2023-02-15T05:36:45;-2.20;99.90
8172;DHT22;4127;47.908;10.850;2023-02-15T05:39:18;-2.30;99.90
8172;DHT22;4127;47.908;10.850;2023-02-15T05:41:48;-2.40;99.90
8172;DHT22;4127;47.908;10.850;2023-02-15T05:44:19;-2.30;99.90
8172;DHT22;4127;47.908;10.850;2023-02-15T05:50:09;-2.40;99.90
8172;DHT22;4127;47.908;10.850;2023-02-15T05:53:24;-2.30;99.90
8172;DHT22;4127;47.908;10.850;2023-02-15T05:56:13;-2.40;99.90
8172;DHT22;4127;47.908;10.850;2023-02-15T05:58:52;-2.50;99.90
8172;DHT22;4127;47.908;10.850;2023-02-15T06:04:53;-2.60;99.90
8172;DHT22;4127;47.908;10.850;2023-02-15T06:07:48;-2.60;99.90
8172;DHT22;4127;47.908;10.850;2023-02-15T06:11:08;-2.50;99.90
8172;DHT22;4127;47.908;10.850;2023-02-15T06:17:29;-2.40;99.90
8172;DHT22;4127;47.908;10.850;2023-02-15T06:21:02;-2.40;99.90
8172;DHT22;4127;47.908;10.850;2023-02-15T06:23:59;-2.30;99.90
8172;DHT22;4127;47.908;10.850;2023-02-15T06:29:51;-2.30;99.90
8172;DHT22;4127;47.908;10.850;2023-02-15T06:36:41;-2.30;99.90
8172;DHT22;4127;47.908;10.850;2023-02-15T06:46:50;-2.00;99.90
8172;DHT22;4127;47.908;10.850;2023-02-15T06:49:17;-1.90;99.90
8172;DHT22;4127;47.908;10.850;2023-02-15T06:51:45;-1.80;99.90
8172;DHT22;4127;47.908;10.850;2023-02-15T06:54:12;-1.80;99.90
8172;DHT22;4127;47.908;10.850;2023-02-15T06:56:47;-1.80;99.90
8172;DHT22;4127;47.908;10.850;2023-02-15T06:59:41;-1.80;99.90
8172;DHT22;4127;47.908;10.850;2023-02-15T07:03:01;-1.80;99.90
8172;DHT22;4127;47.908;10.850;2023-02-15T07:05:46;-1.70;99.90
8172;DHT22;4127;47.908;10.850;2023-02-15T07:08:17;-1.60;99.90
8172;DHT22;4127;47.908;10.850;2023-02-15T07:10:54;-1.50;99.90
8172;DHT22;4127;47.908;10.850;2023-02-15T07:13:28;-1.50;99.90
8172;DHT22;4127;47.908;10.850;2023-02-15T07:15:55;-1.30;99.90
8172;DHT22;4127;47.908;10.850;2023-02-15T07:18:22;-1.20;99.90
8172;DHT22;4127;47.908;10.850;2023-02-15T07:20:49;-1.10;99.90
8172;DHT22;4127;47.908;10.850;2023-02-15T07:23:27;-1.00;99.90
8172;DHT22;4127;47.908;10.850;2023-02-15T07:26:07;-0.90;99.90
8172;DHT22;4127;47.908;10.850;2023-02-15T07:29:14;-0.90;99.90
8172;DHT22;4127;47.908;10.850;2023-02-15T07:31:50;-0.80;99.90
8172;DHT22;4127;47.908;10.850;2023-02-15T07:34:20;-0.80;99.90
8172;DHT22;4127;47.908;10.850;2023-02-15T07:36:47;-0.70;99.90
8172;DHT22;4127;47.908;10.850;2023-02-15T07:39:19;-0.60;99.90
8172;DHT22;4127;47.908;10.850;2023-02-15T07:42:04;-0.70;99.90
8172;DHT22;4127;47.908;10.850;2023-02-15T07:44:33;-0.60;99.90
8172;DHT22;4127;47.908;10.850;2023-02-15T07:47:09;-0.70;99.90
8172;DHT22;4127;47.908;10.850;2023-02-15T07:49:55;-0.70;99.90
8172;DHT22;4127;47.908;10.850;2023-02-15T07:52:37;-0.60;99.90
8172;DHT22;4127;47.908;10.850;2023-02-15T07:59:27;-0.40;99.90
8172;DHT22;4127;47.908;10.850;2023-02-15T08:02:25;-0.20;99.90
8172;DHT22;4127;47.908;10.850;2023-02-15T08:05:04;0.00;99.90
8172;DHT22;4127;47.908;10.850;2023-02-15T08:07:40;0.20;99.90
8172;DHT22;4127;47.908;10.850;2023-02-15T08:10:07;0.30;99.90
8172;DHT22;4127;47.908;10.850;2023-02-15T08:12:56;0.40;99.90
8172;DHT22;4127;47.908;10.850;2023-02-15T08:15:31;0.60;99.90
8172;DHT22;4127;47.908;10.850;2023-02-15T08:18:01;0.80;99.90
8172;DHT22;4127;47.908;10.850;2023-02-15T08:20:37;1.10;99.90
8172;DHT22;4127;47.908;10.850;2023-02-15T08:23:08;1.10;99.90
8172;DHT22;4127;47.908;10.850;2023-02-15T08:25:44;1.30;99.90
8172;DHT22;4127;47.908;10.850;2023-02-15T08:28:11;1.40;99.90
8172;DHT22;4127;47.908;10.850;2023-02-15T08:30:37;1.60;99.90
8172;DHT22;4127;47.908;10.850;2023-02-15T08:33:04;1.70;99.90
8172;DHT22;4127;47.908;10.850;2023-02-15T08:35:33;1.90;99.90
8172;DHT22;4127;47.908;10.850;2023-02-15T08:38:00;1.90;99.90
8172;DHT22;4127;47.908;10.850;2023-02-15T08:40:27;2.10;99.90
8172;DHT22;4127;47.908;10.850;2023-02-15T08:42:54;2.20;99.90
8172;DHT22;4127;47.908;10.850;2023-02-15T08:45:20;2.40;99.90
8172;DHT22;4127;47.908;10.850;2023-02-15T08:47:47;2.60;99.90
8172;DHT22;4127;47.908;10.850;2023-02-15T08:50:14;2.70;99.90
8172;DHT22;4127;47.908;10.850;2023-02-15T08:52:41;2.90;99.90
8172;DHT22;4127;47.908;10.850;2023-02-15T08:55:08;3.20;99.90
8172;DHT22;4127;47.908;10.850;2023-02-15T08:57:35;3.30;99.90
8172;DHT22;4127;47.908;10.850;2023-02-15T09:00:02;3.40;99.90
8172;DHT22;4127;47.908;10.850;2023-02-15T09:02:31;3.60;99.90
8172;DHT22;4127;47.908;10.850;2023-02-15T09:04:57;3.80;99.90
8172;DHT22;4127;47.908;10.850;2023-02-15T09:07:24;4.00;99.90
8172;DHT22;4127;47.908;10.850;2023-02-15T09:09:51;4.10;99.90
8172;DHT22;4127;47.908;10.850;2023-02-15T09:12:18;4.30;99.90
8172;DHT22;4127;47.908;10.850;2023-02-15T09:14:45;4.50;99.90
8172;DHT22;4127;47.908;10.850;2023-02-15T09:17:11;4.60;99.90
8172;DHT22;4127;47.908;10.850;2023-02-15T09:19:41;4.80;99.90
8172;DHT22;4127;47.908;10.850;2023-02-15T09:22:08;4.90;99.90
8172;DHT22;4127;47.908;10.850;2023-02-15T09:24:35;5.10;99.90
8172;DHT22;4127;47.908;10.850;2023-02-15T09:27:01;5.30;99.90
8172;DHT22;4127;47.908;10.850;2023-02-15T09:29:28;5.40;99.90
8172;DHT22;4127;47.908;10.850;2023-02-15T09:31:55;5.50;99.90
8172;DHT22;4127;47.908;10.850;2023-02-15T09:34:22;5.60;99.90
8172;DHT22;4127;47.908;10.850;2023-02-15T09:36:50;5.70;99.90
8172;DHT22;4127;47.908;10.850;2023-02-15T09:39:20;5.90;99.90
8172;DHT22;4127;47.908;10.850;2023-02-15T09:42:16;6.00;99.90
8172;DHT22;4127;47.908;10.850;2023-02-15T09:50:53;6.50;99.90
8172;DHT22;4127;47.908;10.850;2023-02-15T09:59:13;7.10;99.90
8172;DHT22;4127;47.908;10.850;2023-02-15T10:28:43;8.10;99.90
8172;DHT22;4127;47.908;10.850;2023-02-15T10:34:17;8.20;99.90
8172;DHT22;4127;47.908;10.850;2023-02-15T10:37:26;8.30;99.90
8172;DHT22;4127;47.908;10.850;2023-02-15T10:48:00;8.60;96.30
8172;DHT22;4127;47.908;10.850;2023-02-15T10:50:56;8.70;97.40
8172;DHT22;4127;47.908;10.850;2023-02-15T10:56:48;9.00;96.80
8172;DHT22;4127;47.908;10.850;2023-02-15T11:05:30;9.20;96.10
8172;DHT22;4127;47.908;10.850;2023-02-15T11:08:04;9.30;95.20
8172;DHT22;4127;47.908;10.850;2023-02-15T11:10:48;9.50;96.70
8172;DHT22;4127;47.908;10.850;2023-02-15T11:13:19;9.60;95.10
8172;DHT22;4127;47.908;10.850;2023-02-15T11:15:57;9.70;95.20
8172;DHT22;4127;47.908;10.850;2023-02-15T11:18:45;9.80;95.00
8172;DHT22;4127;47.908;10.850;2023-02-15T11:21:37;9.90;94.70
8172;DHT22;4127;47.908;10.850;2023-02-15T11:24:27;9.90;96.40
8172;DHT22;4127;47.908;10.850;2023-02-15T11:27:00;9.80;94.90
8172;DHT22;4127;47.908;10.850;2023-02-15T11:29:33;9.90;95.20
8172;DHT22;4127;47.908;10.850;2023-02-15T11:32:12;10.10;94.50
8172;DHT22;4127;47.908;10.850;2023-02-15T11:34:50;10.10;96.80
8172;DHT22;4127;47.908;10.850;2023-02-15T11:37:21;10.20;96.10
8172;DHT22;4127;47.908;10.850;2023-02-15T11:39:51;10.30;95.00
8172;DHT22;4127;47.908;10.850;2023-02-15T11:42:23;10.30;94.20
8172;DHT22;4127;47.908;10.850;2023-02-15T11:44:59;10.40;94.70
8172;DHT22;4127;47.908;10.850;2023-02-15T11:47:28;10.60;94.30
8172;DHT22;4127;47.908;10.850;2023-02-15T11:49:56;10.70;94.30
8172;DHT22;4127;47.908;10.850;2023-02-15T11:52:23;10.50;94.50
8172;DHT22;4127;47.908;10.850;2023-02-15T11:54:51;10.60;93.90
8172;DHT22;4127;47.908;10.850;2023-02-15T12:00:37;10.90;94.30
8172;DHT22;4127;47.908;10.850;2023-02-15T12:03:12;11.00;94.40
8172;DHT22;4127;47.908;10.850;2023-02-15T12:05:45;11.20;93.60
8172;DHT22;4127;47.908;10.850;2023-02-15T12:08:18;11.20;95.00
8172;DHT22;4127;47.908;10.850;2023-02-15T12:11:25;11.10;93.90
8172;DHT22;4127;47.908;10.850;2023-02-15T12:16:23;11.20;92.40
8172;DHT22;4127;47.908;10.850;2023-02-15T12:18:53;11.30;92.80
8172;DHT22;4127;47.908;10.850;2023-02-15T12:21:33;11.40;93.00
8172;DHT22;4127;47.908;10.850;2023-02-15T12:24:09;11.50;92.80
8172;DHT22;4127;47.908;10.850;2023-02-15T12:26:41;11.60;93.50
8172;DHT22;4127;47.908;10.850;2023-02-15T12:29:15;11.60;91.60
8172;DHT22;4127;47.908;10.850;2023-02-15T12:31:47;11.60;92.10
8172;DHT22;4127;47.908;10.850;2023-02-15T12:34:26;11.60;92.80
8172;DHT22;4127;47.908;10.850;2023-02-15T12:36:56;11.70;92.30
8172;DHT22;4127;47.908;10.850;2023-02-15T12:39:30;11.80;93.30
8172;DHT22;4127;47.908;10.850;2023-02-15T12:41:59;11.80;92.90
8172;DHT22;4127;47.908;10.850;2023-02-15T12:44:32;11.70;92.50
8172;DHT22;4127;47.908;10.850;2023-02-15T12:49:27;11.70;91.50
8172;DHT22;4127;47.908;10.850;2023-02-15T12:52:00;11.80;92.80
8172;DHT22;4127;47.908;10.850;2023-02-15T12:54:40;11.90;92.40
8172;DHT22;4127;47.908;10.850;2023-02-15T12:57:30;11.90;92.40
8172;DHT22;4127;47.908;10.850;2023-02-15T13:00:03;11.90;92.20
8172;DHT22;4127;47.908;10.850;2023-02-15T13:02:45;11.80;91.90
8172;DHT22;4127;47.908;10.850;2023-02-15T13:05:30;11.90;92.40
8172;DHT22;4127;47.908;10.850;2023-02-15T13:08:03;11.90;92.20
8172;DHT22;4127;47.908;10.850;2023-02-15T13:11:02;12.00;92.40
8172;DHT22;4127;47.908;10.850;2023-02-15T13:13:33;12.10;91.90
8172;DHT22;4127;47.908;10.850;2023-02-15T13:16:06;12.20;91.10
8172;DHT22;4127;47.908;10.850;2023-02-15T13:18:44;12.20;91.50
8172;DHT22;4127;47.908;10.850;2023-02-15T13:21:15;12.20;90.50
8172;DHT22;4127;47.908;10.850;2023-02-15T13:23:47;12.20;90.40
8172;DHT22;4127;47.908;10.850;2023-02-15T13:26:19;12.20;90.10
8172;DHT22;4127;47.908;10.850;2023-02-15T13:28:49;12.20;90.80
8172;DHT22;4127;47.908;10.850;2023-02-15T13:31:19;12.20;89.50
8172;DHT22;4127;47.908;10.850;2023-02-15T13:33:52;12.20;90.30
8172;DHT22;4127;47.908;10.850;2023-02-15T13:39:41;12.20;89.60
8172;DHT22;4127;47.908;10.850;2023-02-15T13:42:18;12.30;90.80
8172;DHT22;4127;47.908;10.850;2023-02-15T13:48:00;12.30;90.10
8172;DHT22;4127;47.908;10.850;2023-02-15T13:50:52;12.30;90.50
8172;DHT22;4127;47.908;10.850;2023-02-15T14:13:14;12.20;89.00
8172;DHT22;4127;47.908;10.850;2023-02-15T14:16:00;12.10;89.50
8172;DHT22;4127;47.908;10.850;2023-02-15T14:18:55;12.10;89.30
8172;DHT22;4127;47.908;10.850;2023-02-15T14:21:32;12.10;88.30
8172;DHT22;4127;47.908;10.850;2023-02-15T14:24:07;12.10;87.70
8172;DHT22;4127;47.908;10.850;2023-02-15T14:31:59;12.20;87.00
8172;DHT22;4127;47.908;10.850;2023-02-15T14:34:35;12.10;88.10
8172;DHT22;4127;47.908;10.850;2023-02-15T14:37:04;11.90;88.90
8172;DHT22;4127;47.908;10.850;2023-02-15T14:45:25;12.10;87.80
8172;DHT22;4127;47.908;10.850;2023-02-15T14:48:16;12.00;87.50
8172;DHT22;4127;47.908;10.850;2023-02-15T14:50:47;12.00;88.20
8172;DHT22;4127;47.908;10.850;2023-02-15T14:53:33;12.00;89.40
8172;DHT22;4127;47.908;10.850;2023-02-15T15:01:28;11.90;86.80
8172;DHT22;4127;47.908;10.850;2023-02-15T15:07:22;11.80;87.80
8172;DHT22;4127;47.908;10.850;2023-02-15T15:12:47;11.70;87.80
8172;DHT22;4127;47.908;10.850;2023-02-15T15:15:34;11.70;88.60
8172;DHT22;4127;47.908;10.850;2023-02-15T15:20:50;11.60;88.90
8172;DHT22;4127;47.908;10.850;2023-02-15T15:25:51;11.50;89.70
8172;DHT22;4127;47.908;10.850;2023-02-15T15:42:43;11.10;92.10
8172;DHT22;4127;47.908;10.850;2023-02-15T15:50:42;11.00;92.20
8172;DHT22;4127;47.908;10.850;2023-02-15T15:53:22;11.00;92.20
8172;DHT22;4127;47.908;10.850;2023-02-15T15:56:04;10.90;92.40
8172;DHT22;4127;47.908;10.850;2023-02-15T15:58:33;10.90;92.80
8172;DHT22;4127;47.908;10.850;2023-02-15T16:01:11;10.80;93.00
8172;DHT22;4127;47.908;10.850;2023-02-15T16:03:57;10.60;93.20
8172;DHT22;4127;47.908;10.850;2023-02-15T16:06:34;10.50;93.40
8172;DHT22;4127;47.908;10.850;2023-02-15T16:12:04;10.50;94.60
8172;DHT22;4127;47.908;10.850;2023-02-15T16:14:40;10.40;95.30
8172;DHT22;4127;47.908;10.850;2023-02-15T16:17:18;10.30;95.40
8172;DHT22;4127;47.908;10.850;2023-02-15T16:19:46;10.20;96.00
8172;DHT22;4127;47.908;10.850;2023-02-15T16:22:20;10.30;95.80
8172;DHT22;4127;47.908;10.850;2023-02-15T16:27:43;10.00;96.30
8172;DHT22;4127;47.908;10.850;2023-02-15T16:30:29;9.90;96.50
8172;DHT22;4127;47.908;10.850;2023-02-15T16:35:36;9.60;97.10
8172;DHT22;4127;47.908;10.850;2023-02-15T16:38:03;9.50;97.20
8172;DHT22;4127;47.908;10.850;2023-02-15T16:40:52;9.30;97.30
8172;DHT22;4127;47.908;10.850;2023-02-15T16:43:25;8.80;98.00
8172;DHT22;4127;47.908;10.850;2023-02-15T16:46:24;8.50;98.50
8172;DHT22;4127;47.908;10.850;2023-02-15T16:48:49;8.10;98.90
8172;DHT22;4127;47.908;10.850;2023-02-15T16:51:27;7.60;99.90
8172;DHT22;4127;47.908;10.850;2023-02-15T16:53:56;7.30;99.90
8172;DHT22;4127;47.908;10.850;2023-02-15T16:56:27;7.20;99.90
8172;DHT22;4127;47.908;10.850;2023-02-15T16:58:57;7.00;99.90
8172;DHT22;4127;47.908;10.850;2023-02-15T17:01:28;6.70;99.90
8172;DHT22;4127;47.908;10.850;2023-02-15T17:04:27;6.40;99.90
8172;DHT22;4127;47.908;10.850;2023-02-15T17:07:14;6.20;99.90
8172;DHT22;4127;47.908;10.850;2023-02-15T17:09:54;6.20;99.90
8172;DHT22;4127;47.908;10.850;2023-02-15T17:12:43;5.90;99.90
8172;DHT22;4127;47.908;10.850;2023-02-15T17:15:29;5.70;99.90
8172;DHT22;4127;47.908;10.850;2023-02-15T17:18:05;5.60;99.90
8172;DHT22;4127;47.908;10.850;2023-02-15T17:20:33;5.30;99.90
8172;DHT22;4127;47.908;10.850;2023-02-15T17:23:03;5.10;99.90
8172;DHT22;4127;47.908;10.850;2023-02-15T17:25:38;5.00;99.90
8172;DHT22;4127;47.908;10.850;2023-02-15T17:28:16;4.90;99.90
8172;DHT22;4127;47.908;10.850;2023-02-15T17:30:44;4.70;99.90
8172;DHT22;4127;47.908;10.850;2023-02-15T17:36:17;4.40;99.90
8172;DHT22;4127;47.908;10.850;2023-02-15T17:41:25;4.10;99.90
8172;DHT22;4127;47.908;10.850;2023-02-15T17:43:52;4.10;99.90
8172;DHT22;4127;47.908;10.850;2023-02-15T17:46:19;4.10;99.90
8172;DHT22;4127;47.908;10.850;2023-02-15T17:48:51;4.00;99.90
8172;DHT22;4127;47.908;10.850;2023-02-15T17:51:19;3.90;99.90
8172;DHT22;4127;47.908;10.850;2023-02-15T17:53:47;3.90;99.90
8172;DHT22;4127;47.908;10.850;2023-02-15T17:56:34;3.80;99.90
8172;DHT22;4127;47.908;10.850;2023-02-15T17:59:01;3.70;99.90
8172;DHT22;4127;47.908;10.850;2023-02-15T18:01:41;3.70;99.90
8172;DHT22;4127;47.908;10.850;2023-02-15T18:04:28;3.60;99.90
8172;DHT22;4127;47.908;10.850;2023-02-15T18:07:13;3.50;99.90
8172;DHT22;4127;47.908;10.850;2023-02-15T18:09:59;3.40;99.90
8172;DHT22;4127;47.908;10.850;2023-02-15T18:12:45;3.30;99.90
8172;DHT22;4127;47.908;10.850;2023-02-15T18:15:12;3.10;99.90
8172;DHT22;4127;47.908;10.850;2023-02-15T18:17:44;3.00;99.90
8172;DHT22;4127;47.908;10.850;2023-02-15T18:20:21;2.90;99.90
8172;DHT22;4127;47.908;10.850;2023-02-15T18:22:50;2.90;99.90
8172;DHT22;4127;47.908;10.850;2023-02-15T18:25:19;2.80;99.90
8172;DHT22;4127;47.908;10.850;2023-02-15T18:27:47;2.80;99.90
8172;DHT22;4127;47.908;10.850;2023-02-15T18:30:15;2.80;99.90
8172;DHT22;4127;47.908;10.850;2023-02-15T18:32:44;2.80;99.90
8172;DHT22;4127;47.908;10.850;2023-02-15T18:35:19;2.80;99.90
8172;DHT22;4127;47.908;10.850;2023-02-15T18:37:48;2.70;99.90
8172;DHT22;4127;47.908;10.850;2023-02-15T18:40:17;2.70;99.90
8172;DHT22;4127;47.908;10.850;2023-02-15T18:42:44;2.60;99.90
8172;DHT22;4127;47.908;10.850;2023-02-15T18:45:20;2.60;99.90
8172;DHT22;4127;47.908;10.850;2023-02-15T18:47:48;2.40;99.90
8172;DHT22;4127;47.908;10.850;2023-02-15T18:50:17;2.30;99.90
8172;DHT22;4127;47.908;10.850;2023-02-15T18:52:45;2.20;99.90
8172;DHT22;4127;47.908;10.850;2023-02-15T18:55:18;2.20;99.90
8172;DHT22;4127;47.908;10.850;2023-02-15T18:57:46;2.10;99.90
8172;DHT22;4127;47.908;10.850;2023-02-15T19:02:42;2.00;99.90
8172;DHT22;4127;47.908;10.850;2023-02-15T19:05:09;1.90;99.90
8172;DHT22;4127;47.908;10.850;2023-02-15T19:07:37;1.90;99.90
8172;DHT22;4127;47.908;10.850;2023-02-15T19:10:06;1.90;99.90
8172;DHT22;4127;47.908;10.850;2023-02-15T19:12:34;2.00;99.90
8172;DHT22;4127;47.908;10.850;2023-02-15T19:15:04;2.00;99.90
8172;DHT22;4127;47.908;10.850;2023-02-15T19:17:31;2.00;99.90
8172;DHT22;4127;47.908;10.850;2023-02-15T19:19:57;1.80;99.90
8172;DHT22;4127;47.908;10.850;2023-02-15T19:22:27;1.70;99.90
8172;DHT22;4127;47.908;10.850;2023-02-15T19:25:00;1.70;99.90
8172;DHT22;4127;47.908;10.850;2023-02-15T19:27:30;1.70;99.90
8172;DHT22;4127;47.908;10.850;2023-02-15T19:29:59;1.70;99.90
8172;DHT22;4127;47.908;10.850;2023-02-15T19:32:27;1.70;99.90
8172;DHT22;4127;47.908;10.850;2023-02-15T19:34:54;1.60;99.90
8172;DHT22;4127;47.908;10.850;2023-02-15T19:37:29;1.50;99.90
8172;DHT22;4127;47.908;10.850;2023-02-15T19:39:59;1.50;99.90
8172;DHT22;4127;47.908;10.850;2023-02-15T19:42:27;1.50;99.90
8172;DHT22;4127;47.908;10.850;2023-02-15T19:44:54;1.50;99.90
8172;DHT22;4127;47.908;10.850;2023-02-15T19:47:21;1.50;99.90
8172;DHT22;4127;47.908;10.850;2023-02-15T19:49:48;1.50;99.90
8172;DHT22;4127;47.908;10.850;2023-02-15T19:52:20;1.40;99.90
8172;DHT22;4127;47.908;10.850;2023-02-15T19:54:50;1.40;99.90
8172;DHT22;4127;47.908;10.850;2023-02-15T19:57:17;1.30;99.90
8172;DHT22;4127;47.908;10.850;2023-02-15T19:59:45;1.30;99.90
8172;DHT22;4127;47.908;10.850;2023-02-15T20:02:14;1.30;99.90
8172;DHT22;4127;47.908;10.850;2023-02-15T20:04:41;1.30;99.90
8172;DHT22;4127;47.908;10.850;2023-02-15T20:07:26;1.20;99.90
8172;DHT22;4127;47.908;10.850;2023-02-15T20:09:56;1.20;99.90
8172;DHT22;4127;47.908;10.850;2023-02-15T20:12:24;1.10;99.90
8172;DHT22;4127;47.908;10.850;2023-02-15T20:14:55;1.10;99.90
8172;DHT22;4127;47.908;10.850;2023-02-15T20:17:23;1.10;99.90
8172;DHT22;4127;47.908;10.850;2023-02-15T20:19:50;1.20;99.90
8172;DHT22;4127;47.908;10.850;2023-02-15T20:22:26;1.20;99.90
8172;DHT22;4127;47.908;10.850;2023-02-15T20:24:58;1.20;99.90
8172;DHT22;4127;47.908;10.850;2023-02-15T20:27:30;1.20;99.90
8172;DHT22;4127;47.908;10.850;2023-02-15T20:29:59;1.10;99.90
8172;DHT22;4127;47.908;10.850;2023-02-15T20:32:26;1.10;99.90
8172;DHT22;4127;47.908;10.850;2023-02-15T20:34:53;1.00;99.90
8172;DHT22;4127;47.908;10.850;2023-02-15T20:37:29;1.10;99.90
8172;DHT22;4127;47.908;10.850;2023-02-15T20:40:11;1.00;99.90
8172;DHT22;4127;47.908;10.850;2023-02-15T20:42:40;0.90;99.90
8172;DHT22;4127;47.908;10.850;2023-02-15T20:45:30;0.90;99.90
8172;DHT22;4127;47.908;10.850;2023-02-15T20:47:57;0.90;99.90
8172;DHT22;4127;47.908;10.850;2023-02-15T20:50:27;0.80;99.90
8172;DHT22;4127;47.908;10.850;2023-02-15T20:52:56;0.80;99.90
8172;DHT22;4127;47.908;10.850;2023-02-15T20:55:31;0.70;99.90
8172;DHT22;4127;47.908;10.850;2023-02-15T20:58:01;0.80;99.90
8172;DHT22;4127;47.908;10.850;2023-02-15T21:00:30;0.90;99.90
8172;DHT22;4127;47.908;10.850;2023-02-15T21:03:00;0.90;99.90
8172;DHT22;4127;47.908;10.850;2023-02-15T21:05:30;0.80;99.90
8172;DHT22;4127;47.908;10.850;2023-02-15T21:08:05;0.80;99.90
8172;DHT22;4127;47.908;10.850;2023-02-15T21:10:42;0.90;99.90
8172;DHT22;4127;47.908;10.850;2023-02-15T21:13:36;0.90;99.90
8172;DHT22;4127;47.908;10.850;2023-02-15T21:16:08;0.90;99.90
8172;DHT22;4127;47.908;10.850;2023-02-15T21:18:35;0.80;99.90
8172;DHT22;4127;47.908;10.850;2023-02-15T21:21:05;0.70;99.90
8172;DHT22;4127;47.908;10.850;2023-02-15T21:23:43;0.60;99.90
8172;DHT22;4127;47.908;10.850;2023-02-15T21:26:16;0.60;99.90
8172;DHT22;4127;47.908;10.850;2023-02-15T21:28:49;0.60;99.90
8172;DHT22;4127;47.908;10.850;2023-02-15T21:31:19;0.60;99.90
8172;DHT22;4127;47.908;10.850;2023-02-15T21:33:47;0.60;99.90
8172;DHT22;4127;47.908;10.850;2023-02-15T21:36:22;0.60;99.90
8172;DHT22;4127;47.908;10.850;2023-02-15T21:38:50;0.60;99.90
8172;DHT22;4127;47.908;10.850;2023-02-15T21:41:22;0.60;99.90
8172;DHT22;4127;47.908;10.850;2023-02-15T21:44:26;0.60;99.90
8172;DHT22;4127;47.908;10.850;2023-02-15T21:47:27;0.60;99.90